sensor_id;sensor_type;location;lat;lon;timestamp;P1;P2;P0
49914;PMS5003;35806;47.958;13.158;2022-11-10T00:01:05;25;24;
49914;PMS5003;35806;47.958;13.158;2022-11-10T00:03:34;33;30;
49914;PMS5003;35806;47.958;13.158;2022-11-10T00:06:02;23;21;
49914;PMS5003;35806;47.958;13.158;2022-11-10T00:08:30;20;20;
49914;PMS5003;35806;47.958;13.158;2022-11-10T00:10:58;24;22;
49914;PMS5003;35806;47.958;13.158;2022-11-10T00:13:30;21;21;
49914;PMS5003;35806;47.958;13.158;2022-11-10T00:15:58;22;22;
49914;PMS5003;35806;47.958;13.158;2022-11-10T00:18:26;19;17;
49914;PMS5003;35806;47.958;13.158;2022-11-10T00:20:57;17;16;
49914;PMS5003;35806;47.958;13.158;2022-11-10T00:23:29;21;20;
49914;PMS5003;35806;47.958;13.158;2022-11-10T00:25:56;17;15;
49914;PMS5003;35806;47.958;13.158;2022-11-10T00:28:23;17;17;
49914;PMS5003;35806;47.958;13.158;2022-11-10T00:30:50;16;15;
49914;PMS5003;35806;47.958;13.158;2022-11-10T00:33:17;19;17;
49914;PMS5003;35806;47.958;13.158;2022-11-10T00:35:45;21;21;
49914;PMS5003;35806;47.958;13.158;2022-11-10T00:38:11;15;15;
49914;PMS5003;35806;47.958;13.158;2022-11-10T00:40:38;15;15;
49914;PMS5003;35806;47.958;13.158;2022-11-10T00:43:06;13;13;
49914;PMS5003;35806;47.958;13.158;2022-11-10T00:45:33;11;10;
49914;PMS5003;35806;47.958;13.158;2022-11-10T00:48:00;11;8;
49914;PMS5003;35806;47.958;13.158;2022-11-10T00:50:28;8;8;
49914;PMS5003;35806;47.958;13.158;2022-11-10T00:52:55;16;14;
49914;PMS5003;35806;47.958;13.158;2022-11-10T00:55:22;10;10;
49914;PMS5003;35806;47.958;13.158;2022-11-10T00:57:49;13;13;
49914;PMS5003;35806;47.958;13.158;2022-11-10T01:00:17;12;11;
49914;PMS5003;35806;47.958;13.158;2022-11-10T01:02:45;11;11;
49914;PMS5003;35806;47.958;13.158;2022-11-10T01:05:12;12;11;
49914;PMS5003;35806;47.958;13.158;2022-11-10T01:07:40;14;12;
49914;PMS5003;35806;47.958;13.158;2022-11-10T01:10:07;12;12;
49914;PMS5003;35806;47.958;13.158;2022-11-10T01:12:35;13;13;
49914;PMS5003;35806;47.958;13.158;2022-11-10T01:15:02;13;12;
49914;PMS5003;35806;47.958;13.158;2022-11-10T01:17:33;14;14;
49914;PMS5003;35806;47.958;13.158;2022-11-10T01:20:00;16;14;
49914;PMS5003;35806;47.958;13.158;2022-11-10T01:22:27;13;12;
49914;PMS5003;35806;47.958;13.158;2022-11-10T01:24:56;14;12;
49914;PMS5003;35806;47.958;13.158;2022-11-10T01:27:26;19;14;
49914;PMS5003;35806;47.958;13.158;2022-11-10T01:29:57;14;11;
49914;PMS5003;35806;47.958;13.158;2022-11-10T01:32:24;10;10;
49914;PMS5003;35806;47.958;13.158;2022-11-10T01:35:04;11;9;
49914;PMS5003;35806;47.958;13.158;2022-11-10T01:37:32;12;12;
49914;PMS5003;35806;47.958;13.158;2022-11-10T01:40:05;11;11;
49914;PMS5003;35806;47.958;13.158;2022-11-10T01:42:41;12;12;
49914;PMS5003;35806;47.958;13.158;2022-11-10T01:45:50;10;10;
49914;PMS5003;35806;47.958;13.158;2022-11-10T01:48:24;9;9;
49914;PMS5003;35806;47.958;13.158;2022-11-10T01:50:58;9;7;
49914;PMS5003;35806;47.958;13.158;2022-11-10T01:53:28;10;9;
49914;PMS5003;35806;47.958;13.158;2022-11-10T01:55:59;9;9;
49914;PMS5003;35806;47.958;13.158;2022-11-10T01:58:29;12;11;
49914;PMS5003;35806;47.958;13.158;2022-11-10T02:15:30;10;9;
49914;PMS5003;35806;47.958;13.158;2022-11-10T02:18:02;9;7;
49914;PMS5003;35806;47.958;13.158;2022-11-10T02:20:49;9;7;
49914;PMS5003;35806;47.958;13.158;2022-11-10T02:23:55;9;7;
49914;PMS5003;35806;47.958;13.158;2022-11-10T02:26:23;9;8;
49914;PMS5003;35806;47.958;13.158;2022-11-10T02:28:53;6;5;
49914;PMS5003;35806;47.958;13.158;2022-11-10T02:31:24;4;4;
49914;PMS5003;35806;47.958;13.158;2022-11-10T02:33:56;6;6;
49914;PMS5003;35806;47.958;13.158;2022-11-10T02:36:23;6;6;
49914;PMS5003;35806;47.958;13.158;2022-11-10T02:38:51;4;4;
49914;PMS5003;35806;47.958;13.158;2022-11-10T02:41:18;5;5;
49914;PMS5003;35806;47.958;13.158;2022-11-10T02:43:46;6;6;
49914;PMS5003;35806;47.958;13.158;2022-11-10T02:46:13;7;4;
49914;PMS5003;35806;47.958;13.158;2022-11-10T02:48:45;6;5;
49914;PMS5003;35806;47.958;13.158;2022-11-10T02:51:13;3;3;
49914;PMS5003;35806;47.958;13.158;2022-11-10T02:53:40;7;4;
49914;PMS5003;35806;47.958;13.158;2022-11-10T02:56:07;5;5;
49914;PMS5003;35806;47.958;13.158;2022-11-10T02:58:35;5;4;
49914;PMS5003;35806;47.958;13.158;2022-11-10T03:01:03;4;4;
49914;PMS5003;35806;47.958;13.158;2022-11-10T03:03:31;5;5;
49914;PMS5003;35806;47.958;13.158;2022-11-10T03:05:58;2;2;
49914;PMS5003;35806;47.958;13.158;2022-11-10T03:08:26;4;4;
49914;PMS5003;35806;47.958;13.158;2022-11-10T03:10:54;3;3;
49914;PMS5003;35806;47.958;13.158;2022-11-10T03:13:22;3;3;
49914;PMS5003;35806;47.958;13.158;2022-11-10T03:15:51;3;3;
49914;PMS5003;35806;47.958;13.158;2022-11-10T03:18:18;4;4;
49914;PMS5003;35806;47.958;13.158;2022-11-10T03:20:46;2;2;
49914;PMS5003;35806;47.958;13.158;2022-11-10T03:23:14;2;2;
49914;PMS5003;35806;47.958;13.158;2022-11-10T03:25:43;3;3;
49914;PMS5003;35806;47.958;13.158;2022-11-10T03:28:11;2;2;
49914;PMS5003;35806;47.958;13.158;2022-11-10T03:30:38;2;2;
49914;PMS5003;35806;47.958;13.158;2022-11-10T03:33:06;3;3;
49914;PMS5003;35806;47.958;13.158;2022-11-10T03:35:33;2;2;
49914;PMS5003;35806;47.958;13.158;2022-11-10T03:38:01;5;5;
49914;PMS5003;35806;47.958;13.158;2022-11-10T03:40:29;3;3;
49914;PMS5003;35806;47.958;13.158;2022-11-10T03:42:56;4;4;
49914;PMS5003;35806;47.958;13.158;2022-11-10T03:45:24;5;4;
49914;PMS5003;35806;47.958;13.158;2022-11-10T03:47:52;5;5;
49914;PMS5003;35806;47.958;13.158;2022-11-10T03:50:19;4;4;
49914;PMS5003;35806;47.958;13.158;2022-11-10T03:52:46;4;4;
49914;PMS5003;35806;47.958;13.158;2022-11-10T03:55:15;4;4;
49914;PMS5003;35806;47.958;13.158;2022-11-10T03:57:44;6;4;
49914;PMS5003;35806;47.958;13.158;2022-11-10T04:00:12;4;4;
49914;PMS5003;35806;47.958;13.158;2022-11-10T04:02:41;3;3;
49914;PMS5003;35806;47.958;13.158;2022-11-10T04:05:09;4;4;
49914;PMS5003;35806;47.958;13.158;2022-11-10T04:07:36;3;3;
49914;PMS5003;35806;47.958;13.158;2022-11-10T04:10:04;4;4;
49914;PMS5003;35806;47.958;13.158;2022-11-10T04:12:32;5;4;
49914;PMS5003;35806;47.958;13.158;2022-11-10T04:15:00;3;2;
49914;PMS5003;35806;47.958;13.158;2022-11-10T04:17:32;2;2;
49914;PMS5003;35806;47.958;13.158;2022-11-10T04:19:59;2;2;
49914;PMS5003;35806;47.958;13.158;2022-11-10T04:22:27;3;1;
49914;PMS5003;35806;47.958;13.158;2022-11-10T04:24:54;3;3;
49914;PMS5003;35806;47.958;13.158;2022-11-10T04:27:21;1;1;
49914;PMS5003;35806;47.958;13.158;2022-11-10T04:29:48;3;3;
49914;PMS5003;35806;47.958;13.158;2022-11-10T04:32:15;6;4;
49914;PMS5003;35806;47.958;13.158;2022-11-10T04:34:43;2;2;
49914;PMS5003;35806;47.958;13.158;2022-11-10T04:37:11;2;2;
49914;PMS5003;35806;47.958;13.158;2022-11-10T04:39:37;3;3;
49914;PMS5003;35806;47.958;13.158;2022-11-10T04:42:04;4;4;
49914;PMS5003;35806;47.958;13.158;2022-11-10T04:44:32;8;5;
49914;PMS5003;35806;47.958;13.158;2022-11-10T04:46:58;6;6;
49914;PMS5003;35806;47.958;13.158;2022-11-10T04:49:25;4;4;
49914;PMS5003;35806;47.958;13.158;2022-11-10T04:52:03;4;4;
49914;PMS5003;35806;47.958;13.158;2022-11-10T04:54:30;3;3;
49914;PMS5003;35806;47.958;13.158;2022-11-10T04:56:57;4;4;
49914;PMS5003;35806;47.958;13.158;2022-11-10T04:59:24;3;3;
49914;PMS5003;35806;47.958;13.158;2022-11-10T05:01:52;2;2;
49914;PMS5003;35806;47.958;13.158;2022-11-10T05:04:18;4;4;
49914;PMS5003;35806;47.958;13.158;2022-11-10T05:06:46;6;4;
49914;PMS5003;35806;47.958;13.158;2022-11-10T05:09:13;3;3;
49914;PMS5003;35806;47.958;13.158;2022-11-10T05:11:39;6;5;
49914;PMS5003;35806;47.958;13.158;2022-11-10T05:14:06;7;5;
49914;PMS5003;35806;47.958;13.158;2022-11-10T05:16:33;5;5;
49914;PMS5003;35806;47.958;13.158;2022-11-10T05:19:00;4;4;
49914;PMS5003;35806;47.958;13.158;2022-11-10T05:21:28;5;4;
49914;PMS5003;35806;47.958;13.158;2022-11-10T05:23:54;1;1;
49914;PMS5003;35806;47.958;13.158;2022-11-10T05:26:21;1;1;
49914;PMS5003;35806;47.958;13.158;2022-11-10T05:28:49;4;3;
49914;PMS5003;35806;47.958;13.158;2022-11-10T05:31:15;3;3;
49914;PMS5003;35806;47.958;13.158;2022-11-10T05:33:42;4;2;
49914;PMS5003;35806;47.958;13.158;2022-11-10T05:36:10;3;3;
49914;PMS5003;35806;47.958;13.158;2022-11-10T05:38:37;3;3;
49914;PMS5003;35806;47.958;13.158;2022-11-10T05:41:05;3;3;
49914;PMS5003;35806;47.958;13.158;2022-11-10T05:43:32;4;4;
49914;PMS5003;35806;47.958;13.158;2022-11-10T05:45:59;3;3;
49914;PMS5003;35806;47.958;13.158;2022-11-10T05:48:26;4;4;
49914;PMS5003;35806;47.958;13.158;2022-11-10T05:50:53;4;2;
49914;PMS5003;35806;47.958;13.158;2022-11-10T05:53:20;4;4;
49914;PMS5003;35806;47.958;13.158;2022-11-10T05:55:48;6;3;
49914;PMS5003;35806;47.958;13.158;2022-11-10T05:58:16;4;4;
49914;PMS5003;35806;47.958;13.158;2022-11-10T06:00:43;4;4;
49914;PMS5003;35806;47.958;13.158;2022-11-10T06:03:11;6;4;
49914;PMS5003;35806;47.958;13.158;2022-11-10T06:05:40;5;5;
49914;PMS5003;35806;47.958;13.158;2022-11-10T06:08:08;4;4;
49914;PMS5003;35806;47.958;13.158;2022-11-10T06:10:36;4;4;
49914;PMS5003;35806;47.958;13.158;2022-11-10T06:13:04;4;4;
49914;PMS5003;35806;47.958;13.158;2022-11-10T06:15:31;5;5;
49914;PMS5003;35806;47.958;13.158;2022-11-10T06:17:59;5;4;
49914;PMS5003;35806;47.958;13.158;2022-11-10T06:20:27;4;4;
49914;PMS5003;35806;47.958;13.158;2022-11-10T06:22:58;4;3;
49914;PMS5003;35806;47.958;13.158;2022-11-10T06:25:27;4;4;
49914;PMS5003;35806;47.958;13.158;2022-11-10T06:27:55;4;4;
49914;PMS5003;35806;47.958;13.158;2022-11-10T06:30:23;7;7;
49914;PMS5003;35806;47.958;13.158;2022-11-10T06:32:50;7;7;
49914;PMS5003;35806;47.958;13.158;2022-11-10T06:35:18;7;7;
49914;PMS5003;35806;47.958;13.158;2022-11-10T06:37:55;6;6;
49914;PMS5003;35806;47.958;13.158;2022-11-10T06:40:23;8;7;
49914;PMS5003;35806;47.958;13.158;2022-11-10T06:42:50;7;5;
49914;PMS5003;35806;47.958;13.158;2022-11-10T06:45:18;5;5;
49914;PMS5003;35806;47.958;13.158;2022-11-10T06:47:57;5;5;
49914;PMS5003;35806;47.958;13.158;2022-11-10T06:50:25;3;3;
49914;PMS5003;35806;47.958;13.158;2022-11-10T06:52:53;3;3;
49914;PMS5003;35806;47.958;13.158;2022-11-10T06:55:20;9;9;
49914;PMS5003;35806;47.958;13.158;2022-11-10T06:57:47;9;9;
49914;PMS5003;35806;47.958;13.158;2022-11-10T07:00:15;7;6;
49914;PMS5003;35806;47.958;13.158;2022-11-10T07:02:43;5;5;
49914;PMS5003;35806;47.958;13.158;2022-11-10T07:05:11;11;10;
49914;PMS5003;35806;47.958;13.158;2022-11-10T07:07:38;9;9;
49914;PMS5003;35806;47.958;13.158;2022-11-10T07:10:05;10;10;
49914;PMS5003;35806;47.958;13.158;2022-11-10T07:12:33;11;11;
49914;PMS5003;35806;47.958;13.158;2022-11-10T07:15:01;11;11;
49914;PMS5003;35806;47.958;13.158;2022-11-10T07:17:28;13;13;
49914;PMS5003;35806;47.958;13.158;2022-11-10T07:19:55;9;8;
49914;PMS5003;35806;47.958;13.158;2022-11-10T07:22:23;12;11;
49914;PMS5003;35806;47.958;13.158;2022-11-10T07:24:49;11;11;
49914;PMS5003;35806;47.958;13.158;2022-11-10T07:27:17;12;10;
49914;PMS5003;35806;47.958;13.158;2022-11-10T07:29:45;14;11;
49914;PMS5003;35806;47.958;13.158;2022-11-10T07:32:12;11;11;
49914;PMS5003;35806;47.958;13.158;2022-11-10T07:34:40;8;8;
49914;PMS5003;35806;47.958;13.158;2022-11-10T07:37:07;10;8;
49914;PMS5003;35806;47.958;13.158;2022-11-10T07:39:35;8;8;
49914;PMS5003;35806;47.958;13.158;2022-11-10T07:42:03;7;7;
49914;PMS5003;35806;47.958;13.158;2022-11-10T07:44:35;8;8;
49914;PMS5003;35806;47.958;13.158;2022-11-10T07:47:03;12;10;
49914;PMS5003;35806;47.958;13.158;2022-11-10T07:49:30;8;7;
49914;PMS5003;35806;47.958;13.158;2022-11-10T07:51:58;7;7;
49914;PMS5003;35806;47.958;13.158;2022-11-10T07:54:25;6;6;
49914;PMS5003;35806;47.958;13.158;2022-11-10T07:56:53;7;7;
49914;PMS5003;35806;47.958;13.158;2022-11-10T07:59:20;7;7;
49914;PMS5003;35806;47.958;13.158;2022-11-10T08:01:47;7;7;
49914;PMS5003;35806;47.958;13.158;2022-11-10T08:04:15;6;6;
49914;PMS5003;35806;47.958;13.158;2022-11-10T08:06:42;8;7;
49914;PMS5003;35806;47.958;13.158;2022-11-10T08:09:10;9;9;
49914;PMS5003;35806;47.958;13.158;2022-11-10T08:11:37;8;5;
49914;PMS5003;35806;47.958;13.158;2022-11-10T08:14:04;5;5;
49914;PMS5003;35806;47.958;13.158;2022-11-10T08:16:31;6;6;
49914;PMS5003;35806;47.958;13.158;2022-11-10T08:19:04;6;6;
49914;PMS5003;35806;47.958;13.158;2022-11-10T08:21:31;5;5;
49914;PMS5003;35806;47.958;13.158;2022-11-10T08:24:04;8;7;
49914;PMS5003;35806;47.958;13.158;2022-11-10T08:26:32;5;5;
49914;PMS5003;35806;47.958;13.158;2022-11-10T08:28:59;8;8;
49914;PMS5003;35806;47.958;13.158;2022-11-10T08:31:26;7;6;
49914;PMS5003;35806;47.958;13.158;2022-11-10T08:33:54;11;8;
49914;PMS5003;35806;47.958;13.158;2022-11-10T08:36:21;9;9;
49914;PMS5003;35806;47.958;13.158;2022-11-10T08:38:49;9;9;
49914;PMS5003;35806;47.958;13.158;2022-11-10T08:41:16;9;6;
49914;PMS5003;35806;47.958;13.158;2022-11-10T08:43:44;7;7;
49914;PMS5003;35806;47.958;13.158;2022-11-10T08:46:12;8;6;
49914;PMS5003;35806;47.958;13.158;2022-11-10T08:48:39;8;8;
49914;PMS5003;35806;47.958;13.158;2022-11-10T08:51:07;11;10;
49914;PMS5003;35806;47.958;13.158;2022-11-10T08:53:49;9;8;
49914;PMS5003;35806;47.958;13.158;2022-11-10T08:56:17;8;8;
49914;PMS5003;35806;47.958;13.158;2022-11-10T08:58:44;10;10;
49914;PMS5003;35806;47.958;13.158;2022-11-10T09:01:12;10;8;
49914;PMS5003;35806;47.958;13.158;2022-11-10T09:03:39;10;10;
49914;PMS5003;35806;47.958;13.158;2022-11-10T09:06:07;15;15;
49914;PMS5003;35806;47.958;13.158;2022-11-10T09:08:33;11;10;
49914;PMS5003;35806;47.958;13.158;2022-11-10T09:11:01;14;14;
49914;PMS5003;35806;47.958;13.158;2022-11-10T09:13:28;10;10;
49914;PMS5003;35806;47.958;13.158;2022-11-10T09:15:58;11;10;
49914;PMS5003;35806;47.958;13.158;2022-11-10T09:18:27;13;13;
49914;PMS5003;35806;47.958;13.158;2022-11-10T09:20:54;10;9;
49914;PMS5003;35806;47.958;13.158;2022-11-10T09:23:22;13;12;
49914;PMS5003;35806;47.958;13.158;2022-11-10T09:25:50;11;11;
49914;PMS5003;35806;47.958;13.158;2022-11-10T09:28:18;15;14;
49914;PMS5003;35806;47.958;13.158;2022-11-10T09:30:48;16;16;
49914;PMS5003;35806;47.958;13.158;2022-11-10T09:33:17;15;12;
49914;PMS5003;35806;47.958;13.158;2022-11-10T09:35:44;18;16;
49914;PMS5003;35806;47.958;13.158;2022-11-10T09:38:12;17;15;
49914;PMS5003;35806;47.958;13.158;2022-11-10T09:40:43;20;18;
49914;PMS5003;35806;47.958;13.158;2022-11-10T09:43:24;18;17;
49914;PMS5003;35806;47.958;13.158;2022-11-10T09:45:55;16;16;
49914;PMS5003;35806;47.958;13.158;2022-11-10T09:48:26;12;12;
49914;PMS5003;35806;47.958;13.158;2022-11-10T09:50:57;8;8;
49914;PMS5003;35806;47.958;13.158;2022-11-10T09:53:29;8;8;
49914;PMS5003;35806;47.958;13.158;2022-11-10T09:56:03;11;10;
49914;PMS5003;35806;47.958;13.158;2022-11-10T09:58:33;9;9;
49914;PMS5003;35806;47.958;13.158;2022-11-10T10:01:09;7;6;
49914;PMS5003;35806;47.958;13.158;2022-11-10T10:03:45;7;6;
49914;PMS5003;35806;47.958;13.158;2022-11-10T10:06:18;5;5;
49914;PMS5003;35806;47.958;13.158;2022-11-10T10:08:49;7;7;
49914;PMS5003;35806;47.958;13.158;2022-11-10T10:11:31;6;6;
49914;PMS5003;35806;47.958;13.158;2022-11-10T10:14:10;8;6;
49914;PMS5003;35806;47.958;13.158;2022-11-10T10:16:50;6;6;
49914;PMS5003;35806;47.958;13.158;2022-11-10T10:19:28;7;7;
49914;PMS5003;35806;47.958;13.158;2022-11-10T10:22:11;7;7;
49914;PMS5003;35806;47.958;13.158;2022-11-10T10:25:07;5;4;
49914;PMS5003;35806;47.958;13.158;2022-11-10T10:27:40;5;5;
49914;PMS5003;35806;47.958;13.158;2022-11-10T10:30:11;8;5;
49914;PMS5003;35806;47.958;13.158;2022-11-10T10:32:39;6;6;
49914;PMS5003;35806;47.958;13.158;2022-11-10T10:35:11;8;8;
49914;PMS5003;35806;47.958;13.158;2022-11-10T10:37:41;5;5;
49914;PMS5003;35806;47.958;13.158;2022-11-10T10:40:12;8;6;
49914;PMS5003;35806;47.958;13.158;2022-11-10T10:42:42;6;6;
49914;PMS5003;35806;47.958;13.158;2022-11-10T10:45:11;4;4;
49914;PMS5003;35806;47.958;13.158;2022-11-10T10:47:40;6;5;
49914;PMS5003;35806;47.958;13.158;2022-11-10T10:50:15;7;7;
49914;PMS5003;35806;47.958;13.158;2022-11-10T10:53:04;5;5;
49914;PMS5003;35806;47.958;13.158;2022-11-10T10:55:33;7;6;
49914;PMS5003;35806;47.958;13.158;2022-11-10T10:58:02;6;6;
49914;PMS5003;35806;47.958;13.158;2022-11-10T11:00:30;7;7;
49914;PMS5003;35806;47.958;13.158;2022-11-10T11:03:10;9;9;
49914;PMS5003;35806;47.958;13.158;2022-11-10T11:05:53;8;8;
49914;PMS5003;35806;47.958;13.158;2022-11-10T11:08:26;10;10;
49914;PMS5003;35806;47.958;13.158;2022-11-10T11:10:54;8;8;
49914;PMS5003;35806;47.958;13.158;2022-11-10T11:13:22;8;7;
49914;PMS5003;35806;47.958;13.158;2022-11-10T11:15:55;9;8;
49914;PMS5003;35806;47.958;13.158;2022-11-10T11:18:24;10;10;
49914;PMS5003;35806;47.958;13.158;2022-11-10T11:20:56;10;9;
49914;PMS5003;35806;47.958;13.158;2022-11-10T11:23:34;11;8;
49914;PMS5003;35806;47.958;13.158;2022-11-10T11:26:16;9;9;
49914;PMS5003;35806;47.958;13.158;2022-11-10T11:28:53;12;11;
49914;PMS5003;35806;47.958;13.158;2022-11-10T11:31:30;9;9;
49914;PMS5003;35806;47.958;13.158;2022-11-10T11:34:04;8;8;
49914;PMS5003;35806;47.958;13.158;2022-11-10T11:36:43;6;6;
49914;PMS5003;35806;47.958;13.158;2022-11-10T11:39:22;6;5;
49914;PMS5003;35806;47.958;13.158;2022-11-10T11:42:03;9;7;
49914;PMS5003;35806;47.958;13.158;2022-11-10T11:44:44;9;7;
49914;PMS5003;35806;47.958;13.158;2022-11-10T11:47:24;8;7;
49914;PMS5003;35806;47.958;13.158;2022-11-10T11:50:07;11;9;
49914;PMS5003;35806;47.958;13.158;2022-11-10T11:52:49;8;8;
49914;PMS5003;35806;47.958;13.158;2022-11-10T11:55:25;9;9;
49914;PMS5003;35806;47.958;13.158;2022-11-10T11:58:23;9;7;
49914;PMS5003;35806;47.958;13.158;2022-11-10T12:01:01;8;8;
49914;PMS5003;35806;47.958;13.158;2022-11-10T12:04:08;8;8;
49914;PMS5003;35806;47.958;13.158;2022-11-10T12:06:53;9;9;
49914;PMS5003;35806;47.958;13.158;2022-11-10T12:09:32;8;8;
49914;PMS5003;35806;47.958;13.158;2022-11-10T12:12:11;9;9;
49914;PMS5003;35806;47.958;13.158;2022-11-10T12:14:53;5;5;
49914;PMS5003;35806;47.958;13.158;2022-11-10T12:17:30;12;11;
49914;PMS5003;35806;47.958;13.158;2022-11-10T12:20:06;8;8;
49914;PMS5003;35806;47.958;13.158;2022-11-10T12:22:48;9;8;
49914;PMS5003;35806;47.958;13.158;2022-11-10T12:25:23;6;6;
49914;PMS5003;35806;47.958;13.158;2022-11-10T12:28:07;6;6;
49914;PMS5003;35806;47.958;13.158;2022-11-10T12:30:41;5;5;
49914;PMS5003;35806;47.958;13.158;2022-11-10T12:33:13;8;6;
49914;PMS5003;35806;47.958;13.158;2022-11-10T12:35:47;6;6;
49914;PMS5003;35806;47.958;13.158;2022-11-10T12:38:18;6;6;
49914;PMS5003;35806;47.958;13.158;2022-11-10T12:40:49;9;7;
49914;PMS5003;35806;47.958;13.158;2022-11-10T12:43:30;11;8;
49914;PMS5003;35806;47.958;13.158;2022-11-10T12:46:03;9;9;
49914;PMS5003;35806;47.958;13.158;2022-11-10T12:48:37;11;11;
49914;PMS5003;35806;47.958;13.158;2022-11-10T12:51:12;9;7;
49914;PMS5003;35806;47.958;13.158;2022-11-10T12:53:49;6;6;
49914;PMS5003;35806;47.958;13.158;2022-11-10T12:56:18;7;7;
49914;PMS5003;35806;47.958;13.158;2022-11-10T12:58:49;9;8;
49914;PMS5003;35806;47.958;13.158;2022-11-10T13:01:46;9;8;
49914;PMS5003;35806;47.958;13.158;2022-11-10T13:04:18;8;8;
49914;PMS5003;35806;47.958;13.158;2022-11-10T13:06:47;9;9;
49914;PMS5003;35806;47.958;13.158;2022-11-10T13:09:21;9;7;
49914;PMS5003;35806;47.958;13.158;2022-11-10T13:12:22;5;5;
49914;PMS5003;35806;47.958;13.158;2022-11-10T13:14:50;5;4;
49914;PMS5003;35806;47.958;13.158;2022-11-10T13:20:02;7;7;
49914;PMS5003;35806;47.958;13.158;2022-11-10T13:22:31;7;6;
49914;PMS5003;35806;47.958;13.158;2022-11-10T13:26:07;7;7;
49914;PMS5003;35806;47.958;13.158;2022-11-10T13:30:50;6;5;
49914;PMS5003;35806;47.958;13.158;2022-11-10T13:33:34;12;7;
49914;PMS5003;35806;47.958;13.158;2022-11-10T13:36:02;7;7;
49914;PMS5003;35806;47.958;13.158;2022-11-10T13:38:35;5;5;
49914;PMS5003;35806;47.958;13.158;2022-11-10T13:41:19;6;6;
49914;PMS5003;35806;47.958;13.158;2022-11-10T13:43:48;7;7;
49914;PMS5003;35806;47.958;13.158;2022-11-10T13:46:30;6;5;
49914;PMS5003;35806;47.958;13.158;2022-11-10T13:49:11;7;7;
49914;PMS5003;35806;47.958;13.158;2022-11-10T13:51:49;8;6;
49914;PMS5003;35806;47.958;13.158;2022-11-10T13:54:31;8;7;
49914;PMS5003;35806;47.958;13.158;2022-11-10T13:57:16;7;6;
49914;PMS5003;35806;47.958;13.158;2022-11-10T13:59:52;6;6;
49914;PMS5003;35806;47.958;13.158;2022-11-10T14:02:54;9;8;
49914;PMS5003;35806;47.958;13.158;2022-11-10T14:06:29;8;7;
49914;PMS5003;35806;47.958;13.158;2022-11-10T14:09:10;5;5;
49914;PMS5003;35806;47.958;13.158;2022-11-10T14:11:46;6;5;
49914;PMS5003;35806;47.958;13.158;2022-11-10T14:14:19;6;6;
49914;PMS5003;35806;47.958;13.158;2022-11-10T14:16:50;9;8;
49914;PMS5003;35806;47.958;13.158;2022-11-10T14:19:22;5;5;
49914;PMS5003;35806;47.958;13.158;2022-11-10T14:21:59;5;5;
49914;PMS5003;35806;47.958;13.158;2022-11-10T14:24:34;6;5;
49914;PMS5003;35806;47.958;13.158;2022-11-10T14:27:05;5;5;
49914;PMS5003;35806;47.958;13.158;2022-11-10T14:29:38;6;6;
49914;PMS5003;35806;47.958;13.158;2022-11-10T14:32:11;7;6;
49914;PMS5003;35806;47.958;13.158;2022-11-10T14:34:43;5;5;
49914;PMS5003;35806;47.958;13.158;2022-11-10T14:37:14;6;4;
49914;PMS5003;35806;47.958;13.158;2022-11-10T14:39:46;6;6;
49914;PMS5003;35806;47.958;13.158;2022-11-10T14:42:18;3;3;
49914;PMS5003;35806;47.958;13.158;2022-11-10T14:44:48;6;5;
49914;PMS5003;35806;47.958;13.158;2022-11-10T14:47:24;5;5;
49914;PMS5003;35806;47.958;13.158;2022-11-10T14:50:26;5;5;
49914;PMS5003;35806;47.958;13.158;2022-11-10T14:52:57;7;5;
49914;PMS5003;35806;47.958;13.158;2022-11-10T14:55:27;4;4;
49914;PMS5003;35806;47.958;13.158;2022-11-10T14:57:59;4;4;
49914;PMS5003;35806;47.958;13.158;2022-11-10T15:00:32;6;5;
49914;PMS5003;35806;47.958;13.158;2022-11-10T15:03:04;3;3;
49914;PMS5003;35806;47.958;13.158;2022-11-10T15:05:32;5;5;
49914;PMS5003;35806;47.958;13.158;2022-11-10T15:08:00;4;4;
49914;PMS5003;35806;47.958;13.158;2022-11-10T15:10:41;5;4;
49914;PMS5003;35806;47.958;13.158;2022-11-10T15:13:17;7;7;
49914;PMS5003;35806;47.958;13.158;2022-11-10T15:16:19;9;6;
49914;PMS5003;35806;47.958;13.158;2022-11-10T15:18:47;7;7;
49914;PMS5003;35806;47.958;13.158;2022-11-10T15:21:15;4;4;
49914;PMS5003;35806;47.958;13.158;2022-11-10T15:23:45;7;6;
49914;PMS5003;35806;47.958;13.158;2022-11-10T15:26:19;6;6;
49914;PMS5003;35806;47.958;13.158;2022-11-10T15:28:48;5;5;
49914;PMS5003;35806;47.958;13.158;2022-11-10T15:31:20;5;5;
49914;PMS5003;35806;47.958;13.158;2022-11-10T15:33:50;9;7;
49914;PMS5003;35806;47.958;13.158;2022-11-10T15:36:26;7;6;
49914;PMS5003;35806;47.958;13.158;2022-11-10T15:39:03;6;6;
49914;PMS5003;35806;47.958;13.158;2022-11-10T15:41:32;4;4;
49914;PMS5003;35806;47.958;13.158;2022-11-10T15:44:17;8;8;
49914;PMS5003;35806;47.958;13.158;2022-11-10T15:46:46;6;6;
49914;PMS5003;35806;47.958;13.158;2022-11-10T15:49:19;5;5;
49914;PMS5003;35806;47.958;13.158;2022-11-10T15:51:49;7;7;
49914;PMS5003;35806;47.958;13.158;2022-11-10T15:54:17;9;7;
49914;PMS5003;35806;47.958;13.158;2022-11-10T15:56:47;6;5;
49914;PMS5003;35806;47.958;13.158;2022-11-10T15:59:14;6;6;
49914;PMS5003;35806;47.958;13.158;2022-11-10T16:01:46;9;9;
49914;PMS5003;35806;47.958;13.158;2022-11-10T16:04:20;7;7;
49914;PMS5003;35806;47.958;13.158;2022-11-10T16:06:53;10;10;
49914;PMS5003;35806;47.958;13.158;2022-11-10T16:09:21;8;8;
49914;PMS5003;35806;47.958;13.158;2022-11-10T16:11:48;10;10;
49914;PMS5003;35806;47.958;13.158;2022-11-10T16:14:15;9;8;
49914;PMS5003;35806;47.958;13.158;2022-11-10T16:16:43;10;10;
49914;PMS5003;35806;47.958;13.158;2022-11-10T16:19:10;10;9;
49914;PMS5003;35806;47.958;13.158;2022-11-10T16:21:38;8;8;
49914;PMS5003;35806;47.958;13.158;2022-11-10T16:24:05;9;9;
49914;PMS5003;35806;47.958;13.158;2022-11-10T16:26:32;9;9;
49914;PMS5003;35806;47.958;13.158;2022-11-10T16:29:07;9;8;
49914;PMS5003;35806;47.958;13.158;2022-11-10T16:31:39;12;12;
49914;PMS5003;35806;47.958;13.158;2022-11-10T16:34:08;13;10;
49914;PMS5003;35806;47.958;13.158;2022-11-10T16:36:38;10;9;
49914;PMS5003;35806;47.958;13.158;2022-11-10T16:39:08;9;9;
49914;PMS5003;35806;47.958;13.158;2022-11-10T16:41:42;10;10;
49914;PMS5003;35806;47.958;13.158;2022-11-10T16:44:10;9;8;
49914;PMS5003;35806;47.958;13.158;2022-11-10T16:46:39;10;10;
49914;PMS5003;35806;47.958;13.158;2022-11-10T16:49:14;10;10;
49914;PMS5003;35806;47.958;13.158;2022-11-10T16:51:48;9;8;
49914;PMS5003;35806;47.958;13.158;2022-11-10T16:54:15;11;10;
49914;PMS5003;35806;47.958;13.158;2022-11-10T16:56:42;7;7;
49914;PMS5003;35806;47.958;13.158;2022-11-10T16:59:10;12;11;
49914;PMS5003;35806;47.958;13.158;2022-11-10T17:01:37;8;8;
49914;PMS5003;35806;47.958;13.158;2022-11-10T17:04:08;11;10;
49914;PMS5003;35806;47.958;13.158;2022-11-10T17:06:38;12;11;
49914;PMS5003;35806;47.958;13.158;2022-11-10T17:09:06;9;8;
49914;PMS5003;35806;47.958;13.158;2022-11-10T17:11:41;9;9;
49914;PMS5003;35806;47.958;13.158;2022-11-10T17:14:09;13;13;